Time;durP1;ratioP1;P1;durP2;ratioP2;P2;SDS_P1;SDS_P2;PMS_P1;PMS_P2;Temp;Humidity;BMP_temperature;BMP_pressure;BME280_temperature;BME280_humidity;BME280_pressure;Samples;Min_cycle;Max_cycle;Signal;HPM_P1;HPM_P2
2021/09/17 00:01:48;;;;;;;316.33;300.67;;;11.50;99.90;;;;;;5053890;28;20462;-84
2021/09/17 00:04:18;;;;;;;319.03;303.47;;;11.40;99.90;;;;;;5053888;28;20455;-85
2021/09/17 00:06:50;;;;;;;319.67;304.27;;;11.40;99.90;;;;;;5054291;28;20447;-87
2021/09/17 00:09:19;;;;;;;318.67;302.77;;;11.60;99.90;;;;;;5053837;28;20466;-86
2021/09/17 00:11:55;;;;;;;319.83;304.30;;;11.70;99.90;;;;;;5052611;28;20460;-84
2021/09/17 00:14:27;;;;;;;321.80;305.40;;;11.80;99.90;;;;;;5054662;28;20455;-87
2021/09/17 00:16:57;;;;;;;321.13;305.20;;;11.80;99.90;;;;;;5053640;28;20493;-83
2021/09/17 00:19:33;;;;;;;318.60;302.37;;;11.80;99.90;;;;;;5053195;28;20962;-85
2021/09/17 00:22:03;;;;;;;313.20;297.10;;;12.00;99.90;;;;;;5053388;28;20490;-87
2021/09/17 00:24:36;;;;;;;308.07;292.07;;;12.00;99.90;;;;;;5053372;28;20452;-86
2021/09/17 00:27:04;;;;;;;309.83;294.00;;;12.00;99.90;;;;;;5052330;28;20487;-85
2021/09/17 00:29:38;;;;;;;302.50;286.60;;;12.10;99.90;;;;;;5053112;28;20566;-86
2021/09/17 00:32:09;;;;;;;289.40;274.80;;;12.20;99.90;;;;;;5053068;28;20533;-83
2021/09/17 00:34:38;;;;;;;286.67;271.97;;;12.20;99.90;;;;;;5053265;28;20458;-85
2021/09/17 00:37:06;;;;;;;272.07;258.40;;;12.30;99.90;;;;;;5053237;28;20517;-86
2021/09/17 00:39:35;;;;;;;268.27;254.23;;;12.30;99.90;;;;;;5053307;28;20447;-83
2021/09/17 00:42:08;;;;;;;270.60;256.80;;;12.30;99.90;;;;;;5052788;28;20491;-88
2021/09/17 00:44:35;;;;;;;253.17;239.77;;;12.40;99.90;;;;;;5053047;28;20473;-86
2021/09/17 00:47:03;;;;;;;239.47;226.50;;;12.40;99.90;;;;;;5053070;28;20509;-85
2021/09/17 00:49:32;;;;;;;237.63;224.93;;;12.60;99.90;;;;;;5052749;28;20509;-86
2021/09/17 00:52:02;;;;;;;226.63;213.77;;;12.50;99.90;;;;;;5052782;28;20460;-87
2021/09/17 00:54:34;;;;;;;224.37;211.87;;;12.60;99.90;;;;;;5053188;28;20512;-86
2021/09/17 00:57:03;;;;;;;205.03;193.23;;;12.60;99.90;;;;;;5051894;28;20456;-86
2021/09/17 00:59:30;;;;;;;197.47;185.30;;;12.70;99.90;;;;;;5053094;28;20498;-88
2021/09/17 01:01:57;;;;;;;191.70;180.30;;;12.50;99.90;;;;;;5052846;28;20949;-84
2021/09/17 01:04:30;;;;;;;185.57;174.83;;;12.80;99.90;;;;;;5053151;28;20455;-87
2021/09/17 01:06:57;;;;;;;170.03;159.77;;;12.70;99.90;;;;;;5053039;28;20451;-89
2021/09/17 01:09:28;;;;;;;178.47;167.37;;;12.60;99.90;;;;;;5052840;28;20455;-86
2021/09/17 01:12:02;;;;;;;184.97;173.27;;;12.80;99.90;;;;;;5052260;28;20463;-83
2021/09/17 01:14:32;;;;;;;183.67;172.47;;;12.80;99.90;;;;;;5052752;28;20547;-86
2021/09/17 01:17:00;;;;;;;183.77;172.27;;;12.80;99.90;;;;;;5052926;28;20455;-84
2021/09/17 01:19:29;;;;;;;174.60;163.87;;;12.80;99.90;;;;;;5052702;28;20466;-82
2021/09/17 01:22:03;;;;;;;170.47;159.30;;;12.80;99.90;;;;;;5052542;28;20815;-82
2021/09/17 01:24:31;;;;;;;172.60;161.70;;;12.90;99.90;;;;;;5053083;28;20466;-85
2021/09/17 01:26:58;;;;;;;175.37;163.90;;;13.00;99.90;;;;;;5051098;28;20459;-85
2021/09/17 01:29:25;;;;;;;179.97;167.27;;;12.90;99.90;;;;;;5052473;28;20483;-86
2021/09/17 01:31:52;;;;;;;185.50;172.90;;;13.00;99.90;;;;;;5052840;28;20506;-87
2021/09/17 01:34:21;;;;;;;186.57;173.77;;;13.10;99.90;;;;;;5052347;28;20540;-86
2021/09/17 01:36:52;;;;;;;183.23;172.03;;;13.00;99.90;;;;;;5052697;28;20458;-84
2021/09/17 01:39:22;;;;;;;190.77;178.60;;;13.10;99.90;;;;;;5052851;28;20513;-88
2021/09/17 01:41:52;;;;;;;192.20;179.60;;;13.00;99.90;;;;;;5051691;28;20456;-85
2021/09/17 01:44:22;;;;;;;197.37;185.30;;;13.00;99.90;;;;;;5052529;28;20455;-87
2021/09/17 01:46:55;;;;;;;193.30;180.50;;;13.10;99.90;;;;;;5052431;28;20458;-89
2021/09/17 01:49:25;;;;;;;200.60;187.37;;;13.20;99.90;;;;;;5052651;28;20538;-87
2021/09/17 01:51:53;;;;;;;196.93;182.93;;;13.20;99.90;;;;;;5052388;28;20482;-85
2021/09/17 01:54:24;;;;;;;201.80;188.10;;;13.30;99.90;;;;;;5052184;28;20509;-85
2021/09/17 01:56:51;;;;;;;201.03;187.73;;;13.30;99.90;;;;;;5051155;28;20966;-87
2021/09/17 01:59:19;;;;;;;188.33;176.63;;;13.30;99.90;;;;;;5052316;28;20491;-86
2021/09/17 02:01:47;;;;;;;202.23;189.17;;;13.40;99.90;;;;;;5053861;28;20917;-86
2021/09/17 02:04:17;;;;;;;195.40;181.70;;;13.30;99.90;;;;;;5056100;28;20463;-88
2021/09/17 02:06:44;;;;;;;195.57;181.37;;;13.40;99.90;;;;;;5056224;28;20462;-81
2021/09/17 02:09:13;;;;;;;195.43;182.20;;;13.50;99.90;;;;;;5055971;28;20846;-84
2021/09/17 02:11:46;;;;;;;195.90;182.63;;;13.50;99.90;;;;;;5055229;28;20528;-87
2021/09/17 02:14:16;;;;;;;194.53;180.57;;;13.50;99.90;;;;;;5055832;28;20494;-83
2021/09/17 02:16:45;;;;;;;187.03;173.87;;;13.60;99.90;;;;;;5056147;28;20517;-87
2021/09/17 02:19:15;;;;;;;178.73;166.27;;;13.60;99.90;;;;;;5056363;28;20511;-87
2021/09/17 02:21:49;;;;;;;171.43;159.60;;;13.60;99.90;;;;;;5056049;28;20454;-86
2021/09/17 02:24:16;;;;;;;175.07;162.00;;;13.60;99.90;;;;;;5055716;28;20451;-86
2021/09/17 02:26:44;;;;;;;160.17;148.23;;;13.70;99.90;;;;;;5054805;28;20486;-86
2021/09/17 02:29:14;;;;;;;156.73;145.70;;;13.70;99.90;;;;;;5055529;28;20529;-83
2021/09/17 02:31:43;;;;;;;151.00;140.67;;;13.80;99.90;;;;;;5055327;28;20479;-85
2021/09/17 02:34:11;;;;;;;148.27;138.07;;;13.60;99.90;;;;;;5055500;28;20494;-84
2021/09/17 02:36:40;;;;;;;146.13;136.40;;;13.70;99.90;;;;;;5055539;28;20458;-87
2021/09/17 02:39:07;;;;;;;141.93;132.77;;;13.80;99.90;;;;;;5055520;28;20456;-84
2021/09/17 02:41:39;;;;;;;137.03;127.20;;;13.80;99.90;;;;;;5054606;28;20812;-84
2021/09/17 02:44:12;;;;;;;135.23;125.90;;;13.80;99.90;;;;;;5055456;28;20550;-85
2021/09/17 02:46:42;;;;;;;130.53;122.03;;;13.60;99.90;;;;;;5055681;28;20455;-83
2021/09/17 02:49:09;;;;;;;128.97;120.67;;;13.80;99.90;;;;;;5055327;28;20512;-85
2021/09/17 02:51:37;;;;;;;131.63;122.70;;;13.80;99.90;;;;;;5055130;28;20954;-88
2021/09/17 02:54:04;;;;;;;130.53;121.67;;;13.90;99.90;;;;;;5054966;28;20483;-82
2021/09/17 02:56:31;;;;;;;124.40;116.50;;;13.90;99.90;;;;;;5054343;28;20986;-83
2021/09/17 02:59:07;;;;;;;125.07;116.20;;;13.80;99.90;;;;;;5054928;28;20970;-84
2021/09/17 03:01:37;;;;;;;114.70;106.50;;;13.90;99.90;;;;;;5054946;28;20530;-82
2021/09/17 03:04:15;;;;;;;119.17;111.10;;;13.80;99.90;;;;;;5055002;28;20459;-82
2021/09/17 03:06:44;;;;;;;119.93;112.37;;;13.90;99.90;;;;;;5055214;28;20448;-85
2021/09/17 03:09:11;;;;;;;118.90;111.17;;;13.90;99.90;;;;;;5054734;28;20491;-85
2021/09/17 03:11:38;;;;;;;118.60;110.80;;;14.00;99.90;;;;;;5053714;28;21004;-87
2021/09/17 03:14:05;;;;;;;123.40;115.70;;;13.90;99.90;;;;;;5054445;28;20542;-84
2021/09/17 03:16:32;;;;;;;125.50;116.87;;;13.90;99.90;;;;;;5054532;28;20501;-83
2021/09/17 03:19:06;;;;;;;115.40;107.93;;;13.90;99.90;;;;;;5054847;28;20517;-86
2021/09/17 03:21:35;;;;;;;115.27;106.90;;;13.90;99.90;;;;;;5054395;28;20455;-83
2021/09/17 03:24:02;;;;;;;116.77;109.47;;;14.00;99.90;;;;;;5054848;28;20447;-85
2021/09/17 03:26:29;;;;;;;118.03;109.40;;;13.80;99.90;;;;;;5053668;28;20451;-83
2021/09/17 03:28:56;;;;;;;122.53;114.27;;;13.80;99.90;;;;;;5054551;28;20485;-85
2021/09/17 03:31:26;;;;;;;132.70;123.60;;;13.80;99.90;;;;;;5054350;28;20478;-84
2021/09/17 03:33:53;;;;;;;125.63;116.60;;;13.90;99.90;;;;;;5054197;28;20982;-83
2021/09/17 03:36:22;;;;;;;121.57;113.93;;;13.80;99.90;;;;;;5054421;28;20463;-84
2021/09/17 03:38:53;;;;;;;125.47;117.03;;;13.90;99.90;;;;;;5054411;28;20517;-84
2021/09/17 03:41:21;;;;;;;126.50;118.40;;;13.80;99.90;;;;;;5053535;28;20452;-85
2021/09/17 03:43:48;;;;;;;126.17;117.87;;;13.70;99.90;;;;;;5054020;28;20455;-84
2021/09/17 03:46:15;;;;;;;129.17;120.93;;;13.70;99.90;;;;;;5054055;28;20939;-83
2021/09/17 03:48:42;;;;;;;136.27;127.60;;;13.70;99.90;;;;;;5054174;28;20452;-86
2021/09/17 03:51:14;;;;;;;133.63;124.77;;;13.80;99.90;;;;;;5054018;28;20955;-86
2021/09/17 03:53:42;;;;;;;132.37;123.93;;;13.90;99.90;;;;;;5053828;28;20490;-82
2021/09/17 03:56:11;;;;;;;130.97;122.87;;;13.80;99.90;;;;;;5053214;28;20513;-90
2021/09/17 03:58:40;;;;;;;127.73;119.83;;;13.80;99.90;;;;;;5054139;28;20466;-82
2021/09/17 04:01:09;;;;;;;137.27;128.27;;;13.70;99.90;;;;;;5053753;28;20980;-83
2021/09/17 04:03:36;;;;;;;137.37;128.20;;;13.80;99.90;;;;;;5053837;28;20487;-86
2021/09/17 04:06:06;;;;;;;145.03;134.40;;;13.70;99.90;;;;;;5053900;28;20455;-85
2021/09/17 04:08:36;;;;;;;143.53;133.87;;;13.70;99.90;;;;;;5053739;28;20938;-84
2021/09/17 04:11:04;;;;;;;139.37;130.80;;;13.70;99.90;;;;;;5052638;28;20459;-82
2021/09/17 04:13:31;;;;;;;141.50;132.40;;;13.70;99.90;;;;;;5053670;28;20962;-84
2021/09/17 04:15:58;;;;;;;139.20;129.87;;;13.80;99.90;;;;;;5053899;28;20452;-85
2021/09/17 04:18:27;;;;;;;135.87;126.43;;;13.80;99.90;;;;;;5053750;28;20455;-84
2021/09/17 04:20:54;;;;;;;134.03;123.90;;;13.70;99.90;;;;;;5053641;28;21001;-84
2021/09/17 04:23:21;;;;;;;128.27;120.00;;;13.70;99.90;;;;;;5054478;28;20456;-83
2021/09/17 04:25:58;;;;;;;132.20;123.13;;;13.70;99.90;;;;;;5051996;28;20459;-82
2021/09/17 04:28:26;;;;;;;123.23;113.83;;;13.70;99.90;;;;;;5053329;28;21039;-83
2021/09/17 04:30:58;;;;;;;121.57;113.60;;;13.60;99.90;;;;;;5053176;28;20484;-85
2021/09/17 04:33:25;;;;;;;121.40;112.23;;;13.70;99.90;;;;;;5053195;28;20451;-85
2021/09/17 04:35:55;;;;;;;126.97;118.17;;;13.80;99.90;;;;;;5053174;28;20467;-81
2021/09/17 04:38:27;;;;;;;126.80;117.60;;;13.80;99.90;;;;;;5053523;28;20463;-84
2021/09/17 04:40:56;;;;;;;120.60;112.70;;;13.70;99.90;;;;;;5052365;28;20464;-85
2021/09/17 04:43:23;;;;;;;130.60;121.00;;;13.80;99.90;;;;;;5053146;28;20462;-85
2021/09/17 04:45:55;;;;;;;126.10;118.00;;;13.80;99.90;;;;;;5053302;28;20558;-85
2021/09/17 04:48:22;;;;;;;128.80;119.50;;;13.70;99.90;;;;;;5053050;28;20459;-82
2021/09/17 04:51:01;;;;;;;128.53;120.27;;;13.70;99.90;;;;;;5053129;28;20482;-84
2021/09/17 04:53:36;;;;;;;131.60;123.00;;;13.80;99.90;;;;;;5053845;28;20456;-82
2021/09/17 04:56:09;;;;;;;129.13;120.17;;;13.70;99.90;;;;;;5051644;28;20533;-86
2021/09/17 04:58:38;;;;;;;131.03;122.27;;;13.80;99.90;;;;;;5052867;28;21038;-87
2021/09/17 05:01:09;;;;;;;128.03;119.93;;;13.90;99.90;;;;;;5052763;28;20513;-87
2021/09/17 05:03:38;;;;;;;131.50;122.60;;;13.80;99.90;;;;;;5053012;28;20527;-88
2021/09/17 05:06:19;;;;;;;124.90;116.37;;;13.80;99.90;;;;;;5053655;28;20452;-87
2021/09/17 05:08:52;;;;;;;118.57;110.37;;;13.90;99.90;;;;;;5052888;28;20446;-86
2021/09/17 05:11:24;;;;;;;125.40;116.50;;;13.90;99.90;;;;;;5051820;28;20876;-86
2021/09/17 05:14:00;;;;;;;128.83;119.90;;;13.80;99.90;;;;;;5052893;28;20887;-86
2021/09/17 05:16:32;;;;;;;133.77;124.83;;;13.80;99.90;;;;;;5052740;28;20447;-84
2021/09/17 05:19:03;;;;;;;128.63;119.40;;;13.90;99.90;;;;;;5052999;28;20498;-84
2021/09/17 05:21:37;;;;;;;125.40;116.60;;;13.80;99.90;;;;;;5052632;28;20466;-85
2021/09/17 05:24:13;;;;;;;122.97;114.77;;;13.90;99.90;;;;;;5052645;28;20513;-86
2021/09/17 05:26:42;;;;;;;122.67;114.60;;;13.80;99.90;;;;;;5051847;28;20455;-88
2021/09/17 05:29:16;;;;;;;114.63;106.77;;;13.80;99.90;;;;;;5053250;28;20480;-86
2021/09/17 05:31:48;;;;;;;118.70;110.70;;;13.90;99.90;;;;;;5052365;28;20816;-86
2021/09/17 05:34:15;;;;;;;101.37;94.33;;;14.00;99.90;;;;;;5052292;28;20479;-86
2021/09/17 05:36:46;;;;;;;104.23;96.60;;;14.00;99.90;;;;;;5056004;28;20463;-85
2021/09/17 05:39:18;;;;;;;98.70;91.80;;;14.00;99.90;;;;;;5057138;28;20463;-86
2021/09/17 05:41:49;;;;;;;93.07;86.27;;;14.20;99.90;;;;;;5055343;28;20452;-87
2021/09/17 05:44:23;;;;;;;90.83;84.50;;;14.10;99.90;;;;;;5056809;28;20895;-88
2021/09/17 05:46:51;;;;;;;92.33;84.80;;;14.20;99.90;;;;;;5056543;28;20968;-87
2021/09/17 05:49:27;;;;;;;93.70;87.10;;;14.20;99.90;;;;;;5056438;28;20997;-86
2021/09/17 05:52:00;;;;;;;89.17;82.67;;;14.10;99.90;;;;;;5057151;28;20443;-88
2021/09/17 05:54:32;;;;;;;91.60;84.93;;;14.20;99.90;;;;;;5056407;28;20474;-88
2021/09/17 05:56:59;;;;;;;94.90;88.00;;;14.20;99.90;;;;;;5055462;28;21000;-88
2021/09/17 05:59:43;;;;;;;97.57;90.73;;;14.20;99.90;;;;;;5056053;28;20995;-86
2021/09/17 06:02:13;;;;;;;100.33;92.73;;;14.30;99.90;;;;;;5056296;28;20491;-84
2021/09/17 06:04:42;;;;;;;96.73;89.60;;;14.20;99.90;;;;;;5057277;28;20459;-84
2021/09/17 06:07:13;;;;;;;90.33;83.90;;;14.40;99.90;;;;;;5056969;28;20459;-85
2021/09/17 06:09:42;;;;;;;87.33;81.30;;;14.30;99.90;;;;;;5021357;28;21008;-86
2021/09/17 06:12:27;;;;;;;86.50;79.97;;;14.40;99.90;;;;;;5054767;28;20459;-84
2021/09/17 06:15:04;;;;;;;79.53;73.73;;;14.40;99.90;;;;;;5043988;28;20926;-83
2021/09/17 06:17:51;;;;;;;76.93;71.20;;;14.50;99.90;;;;;;5055787;28;20482;-86
2021/09/17 06:20:27;;;;;;;73.63;67.90;;;14.50;99.90;;;;;;5055610;28;20505;-85
2021/09/17 06:23:41;;;;;;;;;;;;;;;;;;;;;
2021/09/17 06:26:31;;;;;;;;;;;;;;;;;;;;;
2021/09/17 06:33:00;;;;;;;75.87;69.77;;;14.50;99.90;;;;;;5041142;28;20494;-86
2021/09/17 06:56:57;;;;;;;;;;;;;;;;;;;;;
2021/09/17 07:06:46;;;;;;;59.87;55.40;;;15.20;99.90;;;;;;4925920;29;20449;-85
2021/09/17 07:16:29;;;;;;;51.90;47.60;;;15.50;99.90;;;;;;4877312;29;21128;-84
2021/09/17 07:19:16;;;;;;;44.63;41.10;;;15.50;99.90;;;;;;4875183;29;20481;-86
2021/09/17 07:22:24;;;;;;;40.70;36.77;;;15.50;99.90;;;;;;4934327;29;20461;-85
2021/09/17 07:25:03;;;;;;;38.00;34.70;;;15.50;99.90;;;;;;4955114;29;20884;-85
2021/09/17 07:27:32;;;;;;;40.23;36.20;;;15.60;99.90;;;;;;5029471;28;20968;-86
2021/09/17 07:29:59;;;;;;;38.27;34.47;;;15.60;99.90;;;;;;5034725;28;20488;-87
2021/09/17 07:32:28;;;;;;;38.10;34.20;;;15.80;99.90;;;;;;5034934;28;20462;-88
2021/09/17 07:34:57;;;;;;;32.93;30.03;;;15.80;99.90;;;;;;5034611;28;20476;-87
2021/09/17 07:37:24;;;;;;;33.83;30.13;;;16.10;99.90;;;;;;5034679;28;20457;-87
2021/09/17 07:39:52;;;;;;;32.33;29.17;;;16.10;99.90;;;;;;5034821;28;20513;-88
2021/09/17 07:42:24;;;;;;;32.50;28.77;;;16.00;99.90;;;;;;5033733;28;20462;-84
2021/09/17 07:44:51;;;;;;;35.50;28.40;;;16.10;99.90;;;;;;5034253;28;20467;-88
2021/09/17 07:47:34;;;;;;;29.67;26.57;;;16.00;99.90;;;;;;5034482;28;20523;-86
2021/09/17 07:50:05;;;;;;;29.80;26.63;;;16.20;99.90;;;;;;5032265;28;20492;-88
2021/09/17 07:52:37;;;;;;;32.50;27.80;;;16.30;99.90;;;;;;5034500;28;20524;-88
2021/09/17 07:55:09;;;;;;;28.33;25.30;;;16.40;99.90;;;;;;5032811;28;20491;-87
2021/09/17 07:57:36;;;;;;;29.03;25.93;;;16.50;99.90;;;;;;5034829;28;20458;-85
2021/09/17 08:00:12;;;;;;;29.50;25.30;;;16.70;99.90;;;;;;5034949;28;20465;-88
2021/09/17 08:02:42;;;;;;;28.33;25.40;;;16.90;99.10;;;;;;5035021;28;20454;-86
2021/09/17 08:05:17;;;;;;;31.87;25.60;;;16.90;98.10;;;;;;5036046;28;20548;-89
2021/09/17 08:07:44;;;;;;;35.63;23.40;;;17.10;97.30;;;;;;5034340;28;20455;-86
2021/09/17 08:10:14;;;;;;;28.00;22.13;;;17.10;95.60;;;;;;5032974;28;20454;-88
2021/09/17 08:12:41;;;;;;;26.30;22.97;;;17.20;95.00;;;;;;5034208;28;20500;-87
2021/09/17 08:15:13;;;;;;;28.20;23.90;;;17.10;94.40;;;;;;5033909;28;20485;-86
2021/09/17 08:17:48;;;;;;;34.67;23.57;;;17.10;94.20;;;;;;5034166;28;20472;-87
2021/09/17 08:20:19;;;;;;;32.03;22.00;;;17.30;94.00;;;;;;5034437;28;20816;-89
2021/09/17 08:22:46;;;;;;;33.70;21.90;;;17.30;93.00;;;;;;5034028;28;20479;-87
2021/09/17 08:25:19;;;;;;;30.10;20.47;;;17.40;92.60;;;;;;5033479;28;20449;-88
2021/09/17 08:27:46;;;;;;;32.07;21.27;;;17.40;92.50;;;;;;5033781;28;20991;-88
2021/09/17 08:30:17;;;;;;;31.20;20.20;;;17.60;91.40;;;;;;5033716;28;20873;-89
2021/09/17 08:32:48;;;;;;;28.37;21.73;;;17.60;90.10;;;;;;5033815;28;20454;-87
2021/09/17 08:35:34;;;;;;;27.07;22.73;;;17.70;90.00;;;;;;5033425;28;20475;-86
2021/09/17 08:38:06;;;;;;;26.73;21.50;;;17.80;89.20;;;;;;5033445;28;20529;-89
2021/09/17 08:40:33;;;;;;;29.00;19.83;;;17.90;88.50;;;;;;5032545;28;20845;-88
2021/09/17 08:43:04;;;;;;;31.07;20.97;;;17.80;89.00;;;;;;5033492;28;20549;-88
2021/09/17 08:45:49;;;;;;;35.87;21.97;;;17.70;87.80;;;;;;5033391;28;20457;-88
2021/09/17 08:48:22;;;;;;;35.37;20.37;;;17.70;88.30;;;;;;5033840;28;20824;-87
2021/09/17 08:50:54;;;;;;;33.23;20.87;;;17.80;87.90;;;;;;5035490;28;20862;-87
2021/09/17 08:53:29;;;;;;;27.43;20.00;;;17.70;86.70;;;;;;5035528;28;20453;-87
2021/09/17 08:56:07;;;;;;;28.13;19.87;;;17.70;85.50;;;;;;5033801;28;20516;-88
2021/09/17 08:58:39;;;;;;;27.70;20.70;;;17.80;85.20;;;;;;5034657;28;20475;-88
2021/09/17 09:01:07;;;;;;;36.03;21.00;;;18.00;84.20;;;;;;5033718;28;20544;-88
2021/09/17 09:03:37;;;;;;;28.23;20.37;;;18.20;83.50;;;;;;5033359;28;20459;-88
2021/09/17 09:06:16;;;;;;;21.90;17.67;;;18.50;81.60;;;;;;5032442;28;20465;-88
2021/09/17 09:08:44;;;;;;;28.80;19.77;;;18.60;80.00;;;;;;5033321;28;20812;-89
2021/09/17 09:11:16;;;;;;;26.50;19.90;;;18.80;77.10;;;;;;5031351;28;20461;-86
2021/09/17 09:13:58;;;;;;;25.90;18.17;;;19.00;76.90;;;;;;5033480;28;20457;-89
2021/09/17 09:16:25;;;;;;;25.13;19.60;;;19.20;72.70;;;;;;5032864;28;20485;-88
2021/09/17 09:19:02;;;;;;;30.30;20.20;;;19.20;72.30;;;;;;5033624;28;20550;-89
2021/09/17 09:21:35;;;;;;;31.13;21.03;;;19.60;71.90;;;;;;5033371;28;20456;-88
2021/09/17 09:24:14;;;;;;;24.00;18.57;;;19.80;70.00;;;;;;5032991;28;20457;-87
2021/09/17 09:26:47;;;;;;;28.13;19.37;;;20.00;68.50;;;;;;5031862;28;20818;-85
2021/09/17 09:29:29;;;;;;;27.53;18.87;;;20.00;66.40;;;;;;5032498;28;20495;-88
2021/09/17 09:32:05;;;;;;;22.40;16.30;;;20.40;63.70;;;;;;5033339;28;20470;-86
2021/09/17 09:34:55;;;;;;;25.67;17.00;;;20.50;62.40;;;;;;5032984;28;20809;-88
2021/09/17 09:37:27;;;;;;;24.97;16.80;;;20.90;59.10;;;;;;5032705;28;20953;-88
2021/09/17 09:40:00;;;;;;;22.87;17.93;;;21.10;57.70;;;;;;5033098;28;20512;-80
2021/09/17 09:42:34;;;;;;;21.10;17.40;;;21.50;56.40;;;;;;5032185;28;20455;-80
2021/09/17 09:45:16;;;;;;;25.07;18.30;;;21.70;54.80;;;;;;5032620;28;20502;-80
2021/09/17 09:47:44;;;;;;;26.20;16.93;;;21.80;48.80;;;;;;5032657;28;20752;-82
2021/09/17 09:50:14;;;;;;;24.07;16.90;;;21.90;49.00;;;;;;5032738;28;20455;-82
2021/09/17 09:52:41;;;;;;;22.70;16.90;;;22.40;46.80;;;;;;5032562;28;20554;-82
2021/09/17 09:55:10;;;;;;;23.80;16.80;;;22.90;45.70;;;;;;5041642;28;20900;-82
2021/09/17 09:57:37;;;;;;;26.10;18.17;;;22.50;42.80;;;;;;5070979;28;20489;-82
2021/09/17 10:00:09;;;;;;;22.20;15.77;;;22.60;42.90;;;;;;5071108;28;20478;-82
2021/09/17 10:02:37;;;;;;;23.03;16.73;;;23.30;44.10;;;;;;5071023;28;21006;-82
2021/09/17 10:05:07;;;;;;;26.87;16.40;;;23.70;42.30;;;;;;5071243;28;20454;-82
2021/09/17 10:07:36;;;;;;;23.70;16.47;;;24.20;39.20;;;;;;5071323;28;20461;-82
2021/09/17 10:10:06;;;;;;;23.47;17.13;;;24.80;35.00;;;;;;5072041;28;20450;-81
2021/09/17 10:12:33;;;;;;;25.53;19.20;;;24.40;38.20;;;;;;5072197;28;20537;-81
2021/09/17 10:15:01;;;;;;;26.17;18.67;;;24.90;30.70;;;;;;5072051;28;20541;-81
2021/09/17 10:17:29;;;;;;;28.13;20.03;;;25.30;30.90;;;;;;5072477;28;20546;-82
2021/09/17 10:19:58;;;;;;;33.67;17.93;;;24.70;32.00;;;;;;5072205;28;20454;-81
2021/09/17 10:22:30;;;;;;;28.43;18.90;;;24.40;30.10;;;;;;5072777;28;20979;-82
2021/09/17 10:25:15;;;;;;;21.73;16.10;;;25.00;30.00;;;;;;5075618;28;20937;-89
2021/09/17 10:27:46;;;;;;;21.47;17.23;;;25.20;29.30;;;;;;5073971;28;20494;-89
2021/09/17 10:30:15;;;;;;;21.23;16.83;;;24.50;30.20;;;;;;5075514;28;20481;-81
2021/09/17 10:32:45;;;;;;;22.03;15.30;;;24.50;31.90;;;;;;5075478;28;20450;-80
2021/09/17 10:35:15;;;;;;;22.67;16.27;;;24.70;30.40;;;;;;5075351;28;20565;-80
2021/09/17 10:37:58;;;;;;;25.43;16.73;;;24.60;30.30;;;;;;5076846;28;20551;-80
2021/09/17 10:40:53;;;;;;;26.50;16.10;;;24.60;28.90;;;;;;5074270;28;20468;-82
2021/09/17 10:43:37;;;;;;;23.83;16.60;;;24.90;30.40;;;;;;5075359;28;20446;-81
2021/09/17 10:46:06;;;;;;;20.00;16.47;;;25.50;29.10;;;;;;5072835;28;20461;-80
2021/09/17 10:48:55;;;;;;;21.50;16.00;;;25.40;27.80;;;;;;5075261;28;20478;-81
2021/09/17 10:51:34;;;;;;;25.17;17.93;;;26.00;26.10;;;;;;5075149;28;20460;-81
2021/09/17 10:54:03;;;;;;;24.93;15.57;;;25.50;26.50;;;;;;5075098;28;20460;-80
2021/09/17 10:57:06;;;;;;;21.07;16.20;;;26.00;26.80;;;;;;5073942;28;20493;-80
2021/09/17 10:59:47;;;;;;;22.97;16.63;;;26.30;26.30;;;;;;5070313;28;20462;-81
2021/09/17 11:02:15;;;;;;;27.03;17.03;;;26.00;24.50;;;;;;5075272;28;20455;-80
2021/09/17 11:04:45;;;;;;;23.13;16.03;;;25.50;23.60;;;;;;5075125;28;20553;-80
2021/09/17 11:07:34;;;;;;;22.40;15.47;;;25.60;23.60;;;;;;5075753;28;20511;-81
2021/09/17 11:10:03;;;;;;;22.47;16.60;;;25.60;24.40;;;;;;5074438;28;20475;-79
2021/09/17 11:12:31;;;;;;;20.60;15.77;;;25.70;24.50;;;;;;5075057;28;20934;-80
2021/09/17 11:15:02;;;;;;;17.90;14.60;;;26.20;23.90;;;;;;5075037;28;20454;-80
2021/09/17 11:17:41;;;;;;;19.17;14.30;;;26.30;19.90;;;;;;5074780;28;20517;-81
2021/09/17 11:20:11;;;;;;;19.20;14.03;;;25.80;23.70;;;;;;5074973;28;20482;-80
2021/09/17 11:22:51;;;;;;;20.73;15.07;;;25.70;23.70;;;;;;5074526;28;21027;-79
2021/09/17 11:25:27;;;;;;;24.10;16.50;;;26.00;21.80;;;;;;5073338;28;20800;-80
2021/09/17 11:27:59;;;;;;;22.30;14.87;;;25.90;21.20;;;;;;5074748;28;20450;-92
2021/09/17 11:30:29;;;;;;;23.50;16.30;;;25.70;22.60;;;;;;5051102;22;20830;-91
2021/09/17 11:32:59;;;;;;;16.40;13.07;;;25.50;21.40;;;;;;5033844;28;20487;-90
2021/09/17 11:35:27;;;;;;;23.30;15.73;;;25.90;23.80;;;;;;5033871;28;20572;-92
2021/09/17 11:37:58;;;;;;;22.03;14.60;;;26.50;19.50;;;;;;5033838;28;20527;-92
2021/09/17 11:40:31;;;;;;;21.10;18.07;;;26.60;18.10;;;;;;5032619;28;20519;-90
2021/09/17 11:42:58;;;;;;;20.23;14.23;;;26.40;18.30;;;;;;5033153;28;20483;-92
2021/09/17 11:45:29;;;;;;;22.40;15.10;;;26.10;19.70;;;;;;5033738;28;20982;-91
2021/09/17 11:47:56;;;;;;;18.47;15.60;;;25.50;21.20;;;;;;5033867;28;20463;-93
2021/09/17 11:50:27;;;;;;;19.03;13.80;;;25.10;22.20;;;;;;5034072;28;20518;-91
2021/09/17 11:53:05;;;;;;;21.10;15.47;;;25.00;23.30;;;;;;5034211;28;20460;-84
2021/09/17 11:56:26;;;;;;;;;;;;;;;;;;;;;
2021/09/17 11:59:15;;;;;;;21.50;16.60;;;24.20;22.70;;;;;;4937273;29;20462;-85
2021/09/17 12:02:05;;;;;;;22.33;16.93;;;23.90;24.70;;;;;;4969432;28;20506;-87
2021/09/17 12:07:51;;;;;;;21.20;16.23;;;23.10;27.90;;;;;;4953660;29;20448;-85
2021/09/17 12:10:19;;;;;;;21.67;15.50;;;22.90;29.10;;;;;;5017189;28;20813;-78
2021/09/17 12:12:49;;;;;;;25.63;16.47;;;22.60;30.60;;;;;;5033586;28;20546;-90
2021/09/17 12:15:28;;;;;;;26.87;18.00;;;22.40;30.40;;;;;;5033826;28;20548;-90
2021/09/17 12:18:00;;;;;;;27.30;17.70;;;22.20;32.20;;;;;;5033782;28;20486;-89
2021/09/17 12:20:50;;;;;;;19.83;15.57;;;22.10;33.10;;;;;;5033588;28;20470;-88
2021/09/17 12:23:18;;;;;;;22.17;17.30;;;21.90;37.10;;;;;;5033502;28;20448;-87
2021/09/17 12:25:49;;;;;;;23.70;16.97;;;21.70;35.20;;;;;;5032572;28;20475;-89
2021/09/17 12:28:19;;;;;;;21.80;17.27;;;21.60;37.00;;;;;;5033579;28;20470;-89
2021/09/17 12:30:47;;;;;;;24.30;17.07;;;21.70;36.90;;;;;;5033365;28;20537;-89
2021/09/17 12:33:19;;;;;;;24.17;17.67;;;21.80;37.00;;;;;;5033287;28;21001;-89
2021/09/17 12:35:48;;;;;;;31.50;19.07;;;21.90;37.10;;;;;;5033233;28;20462;-87
2021/09/17 12:38:17;;;;;;;22.80;17.53;;;22.10;41.10;;;;;;5033440;28;20460;-90
2021/09/17 12:40:45;;;;;;;26.43;17.20;;;22.30;38.90;;;;;;5032086;28;21024;-90
2021/09/17 12:43:14;;;;;;;25.77;18.40;;;22.30;37.50;;;;;;5033262;28;20825;-90
2021/09/17 12:45:43;;;;;;;26.27;17.63;;;22.30;36.90;;;;;;5032619;28;20507;-90
2021/09/17 12:48:12;;;;;;;23.13;17.27;;;22.40;35.70;;;;;;5033280;28;20451;-89
2021/09/17 12:50:43;;;;;;;20.10;16.80;;;22.50;35.20;;;;;;5033194;28;20516;-89
2021/09/17 12:53:12;;;;;;;22.60;17.87;;;22.50;31.00;;;;;;5033474;28;20454;-90
2021/09/17 12:55:41;;;;;;;23.97;17.47;;;22.80;31.30;;;;;;5031830;28;20485;-89
2021/09/17 12:58:15;;;;;;;25.07;17.27;;;23.00;31.50;;;;;;5033260;28;20520;-89
2021/09/17 13:00:47;;;;;;;29.50;19.93;;;23.00;29.70;;;;;;5033198;28;20466;-90
2021/09/17 13:03:15;;;;;;;23.93;16.80;;;23.10;29.90;;;;;;5033200;28;20453;-90
2021/09/17 13:05:48;;;;;;;24.40;17.10;;;23.30;30.00;;;;;;5033345;28;20455;-90
2021/09/17 13:08:16;;;;;;;21.23;16.50;;;23.40;31.30;;;;;;5032870;28;20982;-89
2021/09/17 13:10:43;;;;;;;20.60;16.20;;;23.50;29.50;;;;;;5031759;28;20450;-90
2021/09/17 13:13:11;;;;;;;21.37;15.30;;;23.50;27.70;;;;;;5032923;28;20553;-90
2021/09/17 13:15:38;;;;;;;20.17;15.70;;;23.80;27.70;;;;;;5032999;28;20954;-89
2021/09/17 13:18:06;;;;;;;20.93;16.73;;;24.00;27.20;;;;;;5033795;28;20497;-90
2021/09/17 13:20:34;;;;;;;24.30;15.00;;;24.30;26.80;;;;;;5033486;28;20922;-86
2021/09/17 13:23:03;;;;;;;19.20;15.57;;;24.90;26.80;;;;;;5034302;28;20506;-90
2021/09/17 13:25:32;;;;;;;21.70;16.57;;;25.00;23.60;;;;;;5034907;28;20551;-90
2021/09/17 13:28:00;;;;;;;20.60;14.63;;;25.30;23.30;;;;;;5032671;28;21017;-88
2021/09/17 13:30:28;;;;;;;24.93;15.70;;;25.90;21.90;;;;;;5032375;28;20526;-89